Time;durP1;ratioP1;P1;durP2;ratioP2;P2;SDS_P1;SDS_P2;PMS_P1;PMS_P2;Temp;Humidity;BMP_temperature;BMP_pressure;BME280_temperature;BME280_humidity;BME280_pressure;Samples;Min_cycle;Max_cycle;Signal;HPM_P1;HPM_P2
2022/03/30 00:00:37;;;;;;;33.03;14.32;;;9.50;86.70;;;;;;5054666;28;21398;-76
2022/03/30 00:03:04;;;;;;;30.58;15.32;;;9.60;86.00;;;;;;5054131;28;20105;-76
2022/03/30 00:05:30;;;;;;;33.33;16.00;;;9.70;85.40;;;;;;5050571;28;20383;-76
2022/03/30 00:07:55;;;;;;;32.67;14.27;;;9.70;85.10;;;;;;5052965;28;20029;-76
2022/03/30 00:10:22;;;;;;;31.50;14.52;;;9.80;84.60;;;;;;5054280;28;20496;-76
2022/03/30 00:12:48;;;;;;;39.40;16.30;;;9.90;84.10;;;;;;5054316;28;20049;-76
2022/03/30 00:15:15;;;;;;;31.40;14.75;;;9.90;83.80;;;;;;5053811;28;20480;-76
2022/03/30 00:17:40;;;;;;;31.08;14.70;;;9.90;83.80;;;;;;5054006;28;20546;-76
2022/03/30 00:20:06;;;;;;;29.75;14.77;;;9.90;83.80;;;;;;5053652;28;20033;-76
2022/03/30 00:22:32;;;;;;;33.40;15.38;;;9.90;83.60;;;;;;5053081;28;20048;-76
2022/03/30 00:24:58;;;;;;;25.65;14.05;;;10.10;83.50;;;;;;5053987;28;20031;-76
2022/03/30 00:27:23;;;;;;;25.65;13.27;;;10.10;82.70;;;;;;5054053;28;20514;-76
2022/03/30 00:29:49;;;;;;;30.25;13.55;;;10.10;82.90;;;;;;5053424;28;20111;-76
2022/03/30 00:32:15;;;;;;;32.03;14.65;;;10.20;82.60;;;;;;5046276;28;20033;-76
2022/03/30 00:34:40;;;;;;;23.50;11.98;;;10.30;82.10;;;;;;5054517;28;20421;-76
2022/03/30 00:37:08;;;;;;;37.60;13.50;;;10.40;81.50;;;;;;5054000;28;20025;-76
2022/03/30 00:39:34;;;;;;;34.33;16.33;;;10.50;81.10;;;;;;5052977;28;20484;-76
2022/03/30 00:42:00;;;;;;;32.17;15.05;;;10.50;80.70;;;;;;5053226;28;20041;-76
2022/03/30 00:44:26;;;;;;;32.00;15.25;;;10.20;80.80;;;;;;5053704;28;20082;-76
2022/03/30 00:46:52;;;;;;;34.38;14.63;;;10.00;81.70;;;;;;5053683;28;20040;-76
2022/03/30 00:49:18;;;;;;;32.83;15.52;;;9.90;82.40;;;;;;5053477;28;20027;-76
2022/03/30 00:51:44;;;;;;;29.88;14.60;;;9.70;83.20;;;;;;5053631;28;20025;-76
2022/03/30 00:54:10;;;;;;;29.83;14.13;;;9.60;83.70;;;;;;5052579;28;20155;-76
2022/03/30 00:56:39;;;;;;;37.90;14.68;;;9.60;83.80;;;;;;5053421;28;20029;-76
2022/03/30 00:59:06;;;;;;;32.15;14.85;;;9.70;83.90;;;;;;5052890;28;20036;-76
2022/03/30 01:01:33;;;;;;;30.52;14.85;;;9.60;84.10;;;;;;5053512;28;20033;-76
2022/03/30 01:04:01;;;;;;;32.33;13.43;;;9.60;84.10;;;;;;5053683;28;20025;-76
2022/03/30 01:06:26;;;;;;;30.02;14.02;;;9.40;84.40;;;;;;5053447;28;20048;-76
2022/03/30 01:08:52;;;;;;;27.48;12.57;;;9.50;84.70;;;;;;5051315;28;20487;-76
2022/03/30 01:11:18;;;;;;;24.45;12.35;;;9.50;84.50;;;;;;5052994;28;20480;-76
2022/03/30 01:13:44;;;;;;;28.90;12.18;;;9.70;84.10;;;;;;5053058;28;20025;-76
2022/03/30 01:16:09;;;;;;;25.17;12.25;;;9.80;83.50;;;;;;5053536;28;20033;-76
2022/03/30 01:18:39;;;;;;;31.23;12.43;;;10.00;83.00;;;;;;5053135;28;20049;-76
2022/03/30 01:21:05;;;;;;;25.48;12.48;;;10.20;82.40;;;;;;5051090;28;20033;-76
2022/03/30 01:23:30;;;;;;;29.33;11.95;;;10.30;81.80;;;;;;5053153;28;20017;-76
2022/03/30 01:25:56;;;;;;;24.20;11.40;;;10.40;81.30;;;;;;5053015;28;20029;-76
2022/03/30 01:28:27;;;;;;;23.63;11.02;;;10.60;81.00;;;;;;5052899;28;20484;-76
2022/03/30 01:33:45;;;;;;;27.42;11.23;;;10.90;79.90;;;;;;5053273;28;20056;-76
2022/03/30 01:36:11;;;;;;;25.60;12.23;;;10.90;79.30;;;;;;5050244;28;20024;-76
2022/03/30 01:38:37;;;;;;;26.45;11.38;;;11.00;78.70;;;;;;5052440;28;20078;-76
2022/03/30 01:41:03;;;;;;;24.65;12.82;;;11.00;78.80;;;;;;5052363;28;20068;-76
2022/03/30 01:43:29;;;;;;;25.63;12.40;;;10.80;78.20;;;;;;5052893;28;20049;-76
2022/03/30 01:45:55;;;;;;;30.20;13.90;;;10.80;78.70;;;;;;5052792;28;20484;-76
2022/03/30 01:48:21;;;;;;;23.35;12.10;;;10.80;78.30;;;;;;5052043;28;20464;-76
2022/03/30 01:50:46;;;;;;;31.45;12.95;;;10.40;78.90;;;;;;5051274;28;20024;-76
2022/03/30 01:53:12;;;;;;;26.70;13.27;;;9.90;80.70;;;;;;5052387;28;20472;-76
2022/03/30 01:55:38;;;;;;;25.77;11.88;;;9.70;82.00;;;;;;5053288;28;20029;-76
2022/03/30 01:58:04;;;;;;;35.92;15.10;;;9.90;82.20;;;;;;5052504;28;20029;-76
2022/03/30 02:00:29;;;;;;;30.73;13.80;;;10.00;81.50;;;;;;5047747;28;20029;-76
2022/03/30 02:02:55;;;;;;;27.73;14.00;;;9.80;81.80;;;;;;5052222;28;20029;-76
2022/03/30 02:05:20;;;;;;;31.23;13.93;;;9.70;82.00;;;;;;5052455;28;20033;-76
2022/03/30 02:07:46;;;;;;;33.45;14.63;;;9.60;82.40;;;;;;5052513;28;20028;-76
2022/03/30 02:10:13;;;;;;;29.00;13.02;;;9.40;82.80;;;;;;5050499;28;20124;-76
2022/03/30 02:12:39;;;;;;;28.00;12.70;;;9.40;83.40;;;;;;5052342;28;20480;-76
2022/03/30 02:15:05;;;;;;;29.52;13.07;;;9.40;83.50;;;;;;5051606;28;20041;-76
2022/03/30 02:17:33;;;;;;;28.52;12.73;;;9.60;83.20;;;;;;5051885;28;20029;-76
2022/03/30 02:19:59;;;;;;;34.58;14.20;;;9.60;82.80;;;;;;5051998;28;20033;-76
2022/03/30 02:22:25;;;;;;;30.85;13.70;;;9.60;82.80;;;;;;5052189;28;20040;-76
2022/03/30 02:24:51;;;;;;;32.83;13.82;;;9.40;83.40;;;;;;5051854;28;20472;-76
2022/03/30 02:27:23;;;;;;;27.25;13.45;;;9.30;84.00;;;;;;5051727;28;20401;-76
2022/03/30 02:29:51;;;;;;;24.90;13.77;;;9.00;85.70;;;;;;5051888;28;20021;-76
2022/03/30 02:32:17;;;;;;;29.80;13.18;;;9.00;85.60;;;;;;5051909;28;20279;-76
2022/03/30 02:34:44;;;;;;;30.33;14.10;;;8.80;86.00;;;;;;5052047;28;20025;-76
2022/03/30 02:37:11;;;;;;;35.03;15.05;;;8.70;87.00;;;;;;5052016;28;20429;-76
2022/03/30 02:39:37;;;;;;;33.63;14.30;;;8.30;88.80;;;;;;5051345;28;20032;-76
2022/03/30 02:42:03;;;;;;;33.13;14.73;;;8.10;90.10;;;;;;5051539;28;20649;-76
2022/03/30 02:44:29;;;;;;;29.45;13.93;;;8.10;90.40;;;;;;5051236;28;20029;-76
2022/03/30 02:46:55;;;;;;;27.38;13.05;;;8.10;90.60;;;;;;5051735;28;20074;-76
2022/03/30 02:49:20;;;;;;;37.80;14.68;;;8.20;90.50;;;;;;5051658;28;20048;-76
2022/03/30 02:51:46;;;;;;;31.25;13.60;;;8.30;90.30;;;;;;5048383;28;20025;-76
2022/03/30 02:54:12;;;;;;;33.50;13.45;;;8.40;90.10;;;;;;5051513;28;20021;-76
2022/03/30 02:56:38;;;;;;;37.85;14.75;;;8.60;89.80;;;;;;5052116;28;20036;-76
2022/03/30 02:59:04;;;;;;;27.23;13.45;;;8.60;89.40;;;;;;5052177;28;20036;-76
2022/03/30 03:01:29;;;;;;;30.88;14.68;;;8.40;89.80;;;;;;5052966;28;20392;-76
2022/03/30 03:03:55;;;;;;;26.70;12.82;;;8.20;90.30;;;;;;5055601;28;20021;-76
2022/03/30 03:06:21;;;;;;;31.35;14.02;;;8.20;90.50;;;;;;5054863;28;20032;-75
2022/03/30 03:08:46;;;;;;;28.70;14.35;;;8.40;90.30;;;;;;5054348;28;20037;-76
2022/03/30 03:11:12;;;;;;;37.03;13.88;;;8.50;90.00;;;;;;5055509;28;20392;-76
2022/03/30 03:13:37;;;;;;;37.70;14.32;;;8.50;89.80;;;;;;5055065;28;20029;-76
2022/03/30 03:16:03;;;;;;;25.90;13.60;;;8.20;90.20;;;;;;5055498;28;20048;-76
2022/03/30 03:18:29;;;;;;;31.33;14.13;;;8.00;90.70;;;;;;5055146;28;20398;-76
2022/03/30 03:20:54;;;;;;;34.28;14.43;;;8.00;90.90;;;;;;5055144;28;20040;-76
2022/03/30 03:23:20;;;;;;;33.78;14.77;;;8.00;91.10;;;;;;5055190;28;20021;-76
2022/03/30 03:25:46;;;;;;;34.78;15.05;;;7.90;91.50;;;;;;5055194;28;20488;-76
2022/03/30 03:28:13;;;;;;;35.13;14.20;;;7.70;91.60;;;;;;5055206;28;20025;-75
2022/03/30 03:30:39;;;;;;;29.85;13.70;;;7.60;91.90;;;;;;5055104;28;20053;-76
2022/03/30 03:33:06;;;;;;;29.80;13.90;;;7.50;92.20;;;;;;5055071;28;20063;-76
2022/03/30 03:35:32;;;;;;;31.08;13.75;;;7.40;92.40;;;;;;5055106;28;20020;-76
2022/03/30 03:37:58;;;;;;;32.10;13.63;;;7.40;92.50;;;;;;5055035;28;20479;-75
2022/03/30 03:40:25;;;;;;;31.23;13.93;;;7.30;92.70;;;;;;5054388;28;20037;-76
2022/03/30 03:42:50;;;;;;;34.50;14.32;;;7.40;92.90;;;;;;5054669;28;20507;-76
2022/03/30 03:45:17;;;;;;;28.83;14.20;;;7.60;92.70;;;;;;5054707;28;20029;-76
2022/03/30 03:47:43;;;;;;;34.00;13.85;;;7.60;92.20;;;;;;5054829;28;20029;-75
2022/03/30 03:50:10;;;;;;;26.80;13.18;;;7.60;92.10;;;;;;5054220;28;20028;-75
2022/03/30 03:52:36;;;;;;;26.48;12.85;;;7.60;92.20;;;;;;5054972;28;20047;-75
2022/03/30 03:55:03;;;;;;;33.28;14.38;;;7.70;92.00;;;;;;5054392;28;20384;-75
2022/03/30 03:57:29;;;;;;;30.48;13.80;;;7.80;91.80;;;;;;5054334;28;20029;-75
2022/03/30 03:59:55;;;;;;;29.63;13.55;;;7.90;91.50;;;;;;5055685;28;20056;-75
2022/03/30 04:02:21;;;;;;;24.95;12.60;;;7.90;91.40;;;;;;5054988;28;20531;-75
2022/03/30 04:04:47;;;;;;;25.25;12.65;;;8.10;91.20;;;;;;5054580;28;20541;-77
2022/03/30 04:07:12;;;;;;;26.35;11.95;;;8.40;90.90;;;;;;5054402;28;20048;-76
2022/03/30 04:09:38;;;;;;;25.63;12.05;;;8.60;90.50;;;;;;5052991;28;20037;-76
2022/03/30 04:12:11;;;;;;;22.10;11.80;;;8.80;90.10;;;;;;5053917;28;20072;-75
2022/03/30 04:14:37;;;;;;;26.63;12.98;;;9.00;89.40;;;;;;5053282;28;20086;-76
2022/03/30 04:17:02;;;;;;;25.85;13.45;;;9.10;88.30;;;;;;5053807;28;20025;-76
2022/03/30 04:19:28;;;;;;;26.25;13.73;;;9.10;87.70;;;;;;5054066;28;20029;-75
2022/03/30 04:21:53;;;;;;;25.15;12.65;;;9.10;87.50;;;;;;5053977;28;20040;-76
2022/03/30 04:24:19;;;;;;;24.83;12.73;;;9.20;87.10;;;;;;5054221;28;20056;-76
2022/03/30 04:26:45;;;;;;;29.15;13.13;;;9.20;86.70;;;;;;5048305;28;20028;-75
2022/03/30 04:29:10;;;;;;;31.33;13.82;;;9.30;86.60;;;;;;5054121;28;20048;-75
2022/03/30 04:31:36;;;;;;;32.60;14.52;;;9.20;85.90;;;;;;5054023;28;20021;-76
2022/03/30 04:34:01;;;;;;;28.67;14.95;;;9.00;85.90;;;;;;5053827;28;20021;-75
2022/03/30 04:36:27;;;;;;;32.45;15.02;;;8.80;86.80;;;;;;5054667;28;20490;-76
2022/03/30 04:38:54;;;;;;;27.92;13.23;;;8.70;87.10;;;;;;5053502;28;20022;-76
2022/03/30 04:41:20;;;;;;;36.03;15.27;;;8.70;87.50;;;;;;5053651;28;20029;-76
2022/03/30 04:43:45;;;;;;;30.50;14.88;;;8.60;87.60;;;;;;5053394;28;20031;-75
2022/03/30 04:46:13;;;;;;;37.75;16.13;;;8.30;88.30;;;;;;5053527;28;20040;-76
2022/03/30 04:48:39;;;;;;;33.10;16.10;;;8.20;89.20;;;;;;5052899;28;20070;-76
2022/03/30 04:51:05;;;;;;;30.23;14.77;;;7.90;90.10;;;;;;5053557;28;20036;-76
2022/03/30 04:53:31;;;;;;;30.83;14.55;;;7.90;90.40;;;;;;5053766;28;20025;-76
2022/03/30 04:55:57;;;;;;;28.00;13.65;;;7.90;90.50;;;;;;5053553;28;20025;-77
2022/03/30 04:58:22;;;;;;;23.92;11.93;;;8.10;90.40;;;;;;5053148;28;20025;-77
2022/03/30 05:00:48;;;;;;;21.58;9.68;;;8.30;90.10;;;;;;5053089;28;20037;-77
2022/03/30 05:03:14;;;;;;;21.52;9.43;;;8.50;90.70;;;;;;5054624;28;20120;-85
2022/03/30 05:05:40;;;;;;;20.95;10.23;;;8.90;91.10;;;;;;5053766;28;20512;-83
2022/03/30 05:08:06;;;;;;;18.90;9.30;;;9.20;91.10;;;;;;5052891;28;20028;-83
2022/03/30 05:10:38;;;;;;;23.50;11.20;;;9.40;90.80;;;;;;5051806;28;20103;-84
2022/03/30 05:13:05;;;;;;;19.27;8.77;;;9.60;90.60;;;;;;5052298;28;20431;-80
2022/03/30 05:15:32;;;;;;;20.20;9.13;;;9.80;90.40;;;;;;5052638;28;20465;-80
2022/03/30 05:17:58;;;;;;;16.60;9.75;;;10.10;90.60;;;;;;5052222;28;20029;-80
2022/03/30 05:20:26;;;;;;;18.88;11.10;;;10.20;90.10;;;;;;5052372;28;20043;-81
2022/03/30 05:22:52;;;;;;;21.70;11.23;;;10.40;88.80;;;;;;5052372;28;20491;-84
2022/03/30 05:25:21;;;;;;;20.08;11.32;;;10.40;87.60;;;;;;5052531;28;20036;-83
2022/03/30 05:27:47;;;;;;;21.63;10.57;;;10.40;86.80;;;;;;5053272;28;20033;-84
2022/03/30 05:30:13;;;;;;;20.45;11.20;;;10.50;86.40;;;;;;5054230;28;20044;-83
2022/03/30 05:32:44;;;;;;;20.60;10.65;;;10.60;85.70;;;;;;5053965;28;20021;-84
2022/03/30 05:35:10;;;;;;;18.98;10.50;;;10.70;85.60;;;;;;5053973;28;20100;-83
2022/03/30 05:37:36;;;;;;;19.98;10.63;;;10.70;85.20;;;;;;5052098;28;20024;-83
2022/03/30 05:40:04;;;;;;;19.38;9.98;;;10.80;84.40;;;;;;5051836;28;20021;-83
2022/03/30 05:42:29;;;;;;;21.30;11.38;;;10.80;84.00;;;;;;5052084;28;20094;-84
2022/03/30 05:44:55;;;;;;;23.25;10.82;;;10.90;83.60;;;;;;5052344;28;20520;-84
2022/03/30 05:47:21;;;;;;;27.48;12.15;;;10.90;82.90;;;;;;5052207;28;20520;-83
2022/03/30 05:49:47;;;;;;;23.40;11.52;;;11.00;82.40;;;;;;5051778;28;20024;-83
2022/03/30 05:52:13;;;;;;;16.63;10.05;;;11.00;81.70;;;;;;5053271;28;20029;-83
2022/03/30 05:54:38;;;;;;;24.40;12.38;;;11.00;81.70;;;;;;5053970;28;20461;-84
2022/03/30 05:57:05;;;;;;;18.45;8.65;;;11.00;81.30;;;;;;5053941;28;20039;-84
2022/03/30 05:59:40;;;;;;;19.02;9.43;;;11.00;82.00;;;;;;5053695;28;20044;-84
2022/03/30 06:02:08;;;;;;;24.88;11.18;;;11.20;82.50;;;;;;5053509;28;20127;-83
2022/03/30 06:04:33;;;;;;;26.23;12.68;;;11.30;81.80;;;;;;5053150;28;20025;-82
2022/03/30 06:06:59;;;;;;;24.45;12.50;;;11.00;77.60;;;;;;5053354;28;20078;-82
2022/03/30 06:09:33;;;;;;;25.95;13.38;;;10.50;78.30;;;;;;5052186;28;20047;-84
2022/03/30 06:12:06;;;;;;;25.50;13.10;;;9.80;80.00;;;;;;5053528;28;20116;-83
2022/03/30 06:14:33;;;;;;;;;;;9.50;82.00;;;;;;5053697;28;20515;-83
2022/03/30 06:16:59;;;;;;;24.60;13.45;;;9.20;82.90;;;;;;5053483;28;19905;-83
2022/03/30 06:19:25;;;;;;;33.30;16.13;;;8.80;83.90;;;;;;5053286;28;20550;-84
2022/03/30 06:21:51;;;;;;;32.08;15.48;;;8.50;85.30;;;;;;5053152;28;20041;-83
2022/03/30 06:24:16;;;;;;;29.45;14.27;;;8.20;87.00;;;;;;5052798;28;20028;-83
2022/03/30 06:26:43;;;;;;;29.38;14.35;;;8.20;88.00;;;;;;5053188;28;20037;-83
2022/03/30 06:29:09;;;;;;;31.27;15.80;;;8.30;88.20;;;;;;5053222;28;20025;-84
2022/03/30 06:31:35;;;;;;;38.97;16.17;;;8.20;88.40;;;;;;5052933;28;20021;-83
2022/03/30 06:34:02;;;;;;;33.97;15.15;;;8.20;89.20;;;;;;5053417;28;20044;-84
2022/03/30 06:36:28;;;;;;;31.20;15.48;;;8.30;89.00;;;;;;5052774;28;20035;-83
2022/03/30 06:38:55;;;;;;;27.75;12.90;;;8.40;89.30;;;;;;5052947;28;20134;-83
2022/03/30 06:41:21;;;;;;;25.17;13.05;;;8.50;89.50;;;;;;5053078;28;20040;-84
2022/03/30 06:43:47;;;;;;;29.85;14.75;;;8.70;89.00;;;;;;5053103;28;20028;-84
2022/03/30 06:46:14;;;;;;;31.15;15.30;;;8.90;88.60;;;;;;5052898;28;20021;-83
2022/03/30 06:48:40;;;;;;;33.03;15.27;;;8.90;87.90;;;;;;5053081;28;20025;-83
2022/03/30 06:51:06;;;;;;;26.38;13.55;;;8.90;88.00;;;;;;5052802;28;20032;-84
2022/03/30 06:53:31;;;;;;;35.85;14.35;;;8.90;87.90;;;;;;5053074;28;20048;-83
2022/03/30 06:55:57;;;;;;;30.48;13.77;;;8.90;88.00;;;;;;5052962;28;20044;-84
2022/03/30 06:58:23;;;;;;;28.67;12.68;;;8.80;88.20;;;;;;5053042;28;20372;-84
2022/03/30 07:00:50;;;;;;;24.52;12.55;;;8.90;88.60;;;;;;5052957;28;20029;-84
2022/03/30 07:03:16;;;;;;;25.50;12.88;;;9.10;88.20;;;;;;5052635;28;20072;-84
2022/03/30 07:05:41;;;;;;;26.05;12.98;;;9.20;88.00;;;;;;5052638;28;20497;-84
2022/03/30 07:10:51;;;;;;;25.38;12.95;;;9.40;87.20;;;;;;5051656;28;20117;-84
2022/03/30 07:13:17;;;;;;;26.52;9.88;;;9.30;87.00;;;;;;5052687;28;20535;-84
2022/03/30 07:15:43;;;;;;;27.02;10.90;;;9.30;87.90;;;;;;5053029;28;20082;-84
2022/03/30 07:18:08;;;;;;;21.45;11.55;;;9.60;88.20;;;;;;5052700;28;20017;-83
2022/03/30 07:20:35;;;;;;;21.88;11.95;;;9.80;87.70;;;;;;5052472;28;20373;-83
2022/03/30 07:23:01;;;;;;;27.20;12.30;;;9.90;86.20;;;;;;5052404;28;20532;-84
2022/03/30 07:25:28;;;;;;;27.67;12.70;;;9.90;86.20;;;;;;5052527;28;20037;-84
2022/03/30 07:27:58;;;;;;;26.38;13.55;;;10.10;86.20;;;;;;5052326;28;20140;-83
2022/03/30 07:30:25;;;;;;;21.77;11.85;;;10.00;85.70;;;;;;5052952;28;20431;-83
2022/03/30 07:32:52;;;;;;;25.83;11.30;;;9.90;86.00;;;;;;5052824;28;20109;-83
2022/03/30 07:35:20;;;;;;;23.58;11.73;;;10.00;87.10;;;;;;5052584;28;20628;-84
2022/03/30 07:37:47;;;;;;;22.80;11.75;;;10.00;86.80;;;;;;5052362;28;20083;-83
2022/03/30 07:40:16;;;;;;;24.10;10.98;;;10.00;87.50;;;;;;5052069;28;20514;-84
2022/03/30 07:42:42;;;;;;;24.60;11.80;;;10.10;88.20;;;;;;5052144;28;20029;-84
2022/03/30 07:45:08;;;;;;;24.77;12.30;;;10.20;88.10;;;;;;5052612;28;20113;-83
2022/03/30 07:47:34;;;;;;;31.48;11.60;;;10.20;87.10;;;;;;5051945;28;20033;-83
2022/03/30 07:50:00;;;;;;;23.65;10.90;;;10.20;87.30;;;;;;5055731;28;20072;-84
2022/03/30 07:52:26;;;;;;;26.05;10.73;;;10.20;87.30;;;;;;5055932;28;20408;-83
2022/03/30 07:54:54;;;;;;;26.13;12.43;;;10.30;87.00;;;;;;5056394;28;20433;-84
2022/03/30 07:57:26;;;;;;;28.42;12.52;;;10.30;86.20;;;;;;5055920;28;20392;-83
2022/03/30 07:59:53;;;;;;;19.27;9.93;;;10.20;86.20;;;;;;5055635;28;20036;-84
2022/03/30 08:02:18;;;;;;;23.88;12.02;;;10.10;86.80;;;;;;5055601;28;20514;-84
2022/03/30 08:04:44;;;;;;;28.00;12.27;;;10.20;87.20;;;;;;5055567;28;20033;-83
2022/03/30 08:07:10;;;;;;;29.33;11.63;;;10.00;87.80;;;;;;5055718;28;20028;-84
2022/03/30 08:09:35;;;;;;;28.40;12.25;;;10.10;88.80;;;;;;5055241;28;20041;-84
2022/03/30 08:12:01;;;;;;;30.05;13.43;;;10.10;88.30;;;;;;5055670;28;20471;-84
2022/03/30 08:14:27;;;;;;;35.05;13.30;;;10.10;88.40;;;;;;5055530;28;20384;-84
2022/03/30 08:16:52;;;;;;;37.85;14.20;;;9.80;89.60;;;;;;5055441;28;20484;-84
2022/03/30 08:19:18;;;;;;;33.85;13.70;;;9.70;90.40;;;;;;5055403;28;20029;-84
2022/03/30 08:24:28;;;;;;;36.35;13.85;;;9.50;91.30;;;;;;5055141;28;20048;-85
2022/03/30 08:26:54;;;;;;;30.27;12.95;;;9.40;91.70;;;;;;5055306;28;20488;-84
2022/03/30 08:29:19;;;;;;;27.90;13.02;;;9.40;92.20;;;;;;5055161;28;20029;-84
2022/03/30 08:31:47;;;;;;;28.60;12.73;;;9.60;91.80;;;;;;5055456;28;20051;-83
2022/03/30 08:34:14;;;;;;;29.00;12.57;;;9.70;91.90;;;;;;5055765;28;20044;-84
2022/03/30 08:36:40;;;;;;;30.10;12.70;;;9.90;91.50;;;;;;5055479;28;20035;-85
2022/03/30 08:39:11;;;;;;;27.10;10.95;;;10.10;91.20;;;;;;5055379;28;20021;-85
2022/03/30 08:41:40;;;;;;;26.52;11.45;;;10.30;90.60;;;;;;5054745;28;20040;-84
2022/03/30 08:44:06;;;;;;;33.65;12.55;;;10.70;90.30;;;;;;5055041;28;20025;-84
2022/03/30 08:46:32;;;;;;;24.52;10.55;;;11.00;89.60;;;;;;5054944;28;20021;-84
2022/03/30 08:48:57;;;;;;;27.00;11.50;;;11.30;88.20;;;;;;5054725;28;20299;-85
2022/03/30 08:51:24;;;;;;;37.08;14.55;;;11.60;87.70;;;;;;5054660;28;20025;-84
2022/03/30 08:53:49;;;;;;;26.02;12.40;;;11.70;85.10;;;;;;5055028;28;20070;-84
2022/03/30 08:56:17;;;;;;;30.48;12.68;;;11.60;85.80;;;;;;5054566;28;20108;-84
2022/03/30 08:58:42;;;;;;;29.42;12.77;;;11.80;87.00;;;;;;5054218;28;20033;-84
2022/03/30 09:01:11;;;;;;;30.48;14.15;;;12.00;86.50;;;;;;5054590;28;20041;-84
2022/03/30 09:03:54;;;;;;;30.40;14.02;;;12.10;84.20;;;;;;5054788;28;20035;-85
2022/03/30 09:06:38;;;;;;;33.25;12.98;;;11.90;84.20;;;;;;5053723;28;20388;-83
2022/03/30 09:09:06;;;;;;;29.88;12.98;;;11.60;85.20;;;;;;5053598;28;20041;-83
2022/03/30 09:11:40;;;;;;;25.63;11.77;;;11.60;86.10;;;;;;5054649;28;20052;-88
2022/03/30 09:14:09;;;;;;;23.42;11.43;;;11.70;85.10;;;;;;5054622;28;20021;-87
2022/03/30 09:16:46;;;;;;;26.17;11.55;;;11.60;83.80;;;;;;5055128;28;20079;-94
2022/03/30 09:19:14;;;;;;;23.92;10.48;;;11.50;83.80;;;;;;5054873;28;20503;-89
2022/03/30 09:21:51;;;;;;;15.88;8.23;;;11.50;84.50;;;;;;5054382;28;20041;-86
2022/03/30 09:24:20;;;;;;;16.45;7.85;;;11.80;82.20;;;;;;5054512;28;20032;-82
2022/03/30 09:26:47;;;;;;;14.95;7.40;;;12.00;83.40;;;;;;5054055;28;20021;-85
2022/03/30 09:29:13;;;;;;;14.95;8.52;;;12.10;82.30;;;;;;5054448;28;20033;-87
2022/03/30 09:31:41;;;;;;;16.30;8.48;;;12.10;79.80;;;;;;5054160;28;20025;-88
2022/03/30 09:34:09;;;;;;;16.38;8.32;;;11.90;79.80;;;;;;5054292;28;20435;-89
2022/03/30 09:36:40;;;;;;;18.45;9.75;;;11.60;80.70;;;;;;5054431;28;20025;-89
2022/03/30 09:39:09;;;;;;;16.27;9.00;;;11.70;81.70;;;;;;5054068;28;20083;-85
2022/03/30 09:41:49;;;;;;;21.33;9.55;;;11.50;80.80;;;;;;5054202;28;20105;-89
2022/03/30 09:44:16;;;;;;;18.52;9.80;;;11.40;81.50;;;;;;5054440;28;20027;-89
2022/03/30 09:47:05;;;;;;;18.67;8.95;;;11.50;82.30;;;;;;5054078;28;20032;-89
2022/03/30 09:49:39;;;;;;;16.17;8.30;;;11.60;83.10;;;;;;5054043;28;20021;-87
2022/03/30 09:52:15;;;;;;;18.52;9.20;;;11.80;82.70;;;;;;5053783;28;20461;-87
2022/03/30 09:54:53;;;;;;;17.23;8.73;;;12.20;81.30;;;;;;5054041;28;20037;-87
2022/03/30 09:57:28;;;;;;;12.57;7.13;;;12.40;79.10;;;;;;5053666;28;20021;-89
2022/03/30 10:00:30;;;;;;;17.45;8.98;;;12.50;78.50;;;;;;5053676;28;20087;-83
2022/03/30 10:02:55;;;;;;;12.00;6.53;;;12.40;76.90;;;;;;5031353;28;20037;-82
2022/03/30 10:05:23;;;;;;;15.50;7.18;;;12.50;76.30;;;;;;5049091;28;20037;-82
2022/03/30 10:07:50;;;;;;;11.57;6.20;;;12.50;74.90;;;;;;5053601;28;20029;-83
2022/03/30 10:10:17;;;;;;;11.02;6.97;;;12.50;75.00;;;;;;5052914;28;20464;-85
2022/03/30 10:12:44;;;;;;;8.48;5.20;;;12.60;76.10;;;;;;5052911;28;20430;-82
2022/03/30 10:15:10;;;;;;;10.98;5.07;;;13.00;73.40;;;;;;5053223;28;20077;-83
2022/03/30 10:17:37;;;;;;;10.30;6.05;;;13.20;72.70;;;;;;5052856;28;20036;-83
2022/03/30 10:20:05;;;;;;;16.02;6.05;;;13.40;71.30;;;;;;5053138;28;20017;-81
2022/03/30 10:22:50;;;;;;;10.43;5.00;;;13.70;69.30;;;;;;5053409;28;20104;-81
2022/03/30 10:25:32;;;;;;;10.23;5.97;;;13.60;68.30;;;;;;5053086;28;20103;-80
2022/03/30 10:28:21;;;;;;;16.70;5.35;;;13.40;69.60;;;;;;5052805;28;20082;-81
2022/03/30 10:30:53;;;;;;;9.05;4.70;;;13.40;68.10;;;;;;5052850;28;20490;-82
2022/03/30 10:33:35;;;;;;;12.47;6.20;;;13.40;68.50;;;;;;5053357;28;20033;-83
2022/03/30 10:36:19;;;;;;;11.63;5.28;;;13.10;67.50;;;;;;5053377;28;20100;-80
2022/03/30 10:39:11;;;;;;;13.88;5.93;;;12.60;67.90;;;;;;5052741;28;20021;-76
2022/03/30 10:41:50;;;;;;;10.40;5.75;;;12.30;67.90;;;;;;5052836;28;20045;-76
2022/03/30 10:44:35;;;;;;;11.30;5.18;;;12.00;70.00;;;;;;5052901;28;20079;-76
2022/03/30 10:47:07;;;;;;;8.30;4.95;;;12.10;70.50;;;;;;5053070;28;20100;-78
2022/03/30 10:49:47;;;;;;;10.07;5.10;;;12.20;68.90;;;;;;5052616;28;20029;-77
2022/03/30 10:52:40;;;;;;;12.20;5.25;;;12.30;69.20;;;;;;5052872;28;20100;-76
2022/03/30 10:55:15;;;;;;;9.00;5.43;;;12.40;69.40;;;;;;5053017;28;20025;-76
2022/03/30 10:57:47;;;;;;;10.88;5.38;;;12.70;71.40;;;;;;5053072;28;20028;-85
2022/03/30 11:00:34;;;;;;;8.57;5.47;;;13.00;70.60;;;;;;5052486;28;20033;-88
2022/03/30 11:03:14;;;;;;;12.80;6.32;;;13.20;68.00;;;;;;5052759;28;20036;-79
2022/03/30 11:05:45;;;;;;;12.57;5.90;;;13.30;66.80;;;;;;5053003;28;20116;-82
2022/03/30 11:08:32;;;;;;;13.05;7.38;;;13.10;67.90;;;;;;5052762;28;20491;-79
2022/03/30 11:11:01;;;;;;;14.23;6.47;;;13.10;68.90;;;;;;5052085;28;20103;-79
2022/03/30 11:13:27;;;;;;;10.95;6.30;;;13.00;68.90;;;;;;5052759;28;20047;-79
2022/03/30 11:15:59;;;;;;;12.20;6.38;;;12.80;68.30;;;;;;5052369;28;20104;-79
2022/03/30 11:18:26;;;;;;;8.63;5.43;;;12.60;67.90;;;;;;5052514;28;20053;-78
2022/03/30 11:21:16;;;;;;;9.30;5.40;;;12.60;67.80;;;;;;5052513;28;20404;-78
2022/03/30 11:24:04;;;;;;;8.15;4.45;;;12.80;67.80;;;;;;5052895;28;20535;-78
2022/03/30 11:26:59;;;;;;;11.80;6.32;;;12.90;68.00;;;;;;5056322;28;20032;-78
2022/03/30 11:29:39;;;;;;;9.10;5.25;;;13.00;67.60;;;;;;5055755;28;20021;-78
2022/03/30 11:32:24;;;;;;;9.40;4.90;;;12.80;68.20;;;;;;5055866;28;20032;-78
2022/03/30 11:34:58;;;;;;;11.45;5.60;;;12.90;69.70;;;;;;5056068;28;20039;-78
2022/03/30 11:37:27;;;;;;;12.48;5.60;;;13.10;69.40;;;;;;5056304;28;20025;-79
2022/03/30 11:40:14;;;;;;;8.70;4.90;;;13.30;66.70;;;;;;5056069;28;20025;-79
2022/03/30 11:42:43;;;;;;;10.48;5.85;;;13.30;66.70;;;;;;5055878;28;20504;-79
2022/03/30 11:45:15;;;;;;;9.00;4.90;;;13.10;66.50;;;;;;5056141;28;20021;-77
2022/03/30 11:47:51;;;;;;;;;;;13.10;66.60;;;;;;5056731;28;20039;-78
2022/03/30 11:50:26;;;;;;;13.05;5.35;;;13.10;66.70;;;;;;5055573;28;20291;-78
2022/03/30 11:52:56;;;;;;;7.95;4.40;;;13.20;66.50;;;;;;5055507;28;20025;-78
2022/03/30 11:55:22;;;;;;;8.35;5.15;;;13.30;66.80;;;;;;5054773;28;20029;-79
2022/03/30 11:57:51;;;;;;;7.82;4.75;;;13.30;66.60;;;;;;5052547;28;20017;-78
2022/03/30 12:00:21;;;;;;;9.85;4.82;;;13.50;66.90;;;;;;5052882;28;20108;-78
2022/03/30 12:02:46;;;;;;;6.05;4.32;;;13.60;65.60;;;;;;5053197;28;20557;-78
2022/03/30 12:05:12;;;;;;;6.80;4.07;;;13.70;63.80;;;;;;5054041;28;20032;-76
2022/03/30 12:07:39;;;;;;;9.75;4.53;;;13.60;64.90;;;;;;5054049;28;20103;-77
2022/03/30 12:10:11;;;;;;;6.90;4.43;;;13.70;64.30;;;;;;5053277;28;20061;-75
2022/03/30 12:12:40;;;;;;;9.05;4.57;;;13.70;64.40;;;;;;5054564;28;20545;-78
2022/03/30 12:15:06;;;;;;;6.90;4.35;;;13.80;63.90;;;;;;5053587;28;20033;-81
2022/03/30 12:17:32;;;;;;;8.05;4.25;;;13.80;63.80;;;;;;5053757;28;20484;-79
2022/03/30 12:20:00;;;;;;;8.68;4.30;;;13.90;63.70;;;;;;5053727;28;20068;-79
2022/03/30 12:22:26;;;;;;;5.30;4.10;;;14.00;64.10;;;;;;5053064;28;20047;-75
2022/03/30 12:24:52;;;;;;;5.78;4.60;;;14.10;64.00;;;;;;5054809;28;20104;-80
2022/03/30 12:27:18;;;;;;;9.02;4.60;;;14.10;63.50;;;;;;5055001;28;20032;-80
2022/03/30 12:29:47;;;;;;;7.25;4.68;;;13.90;63.90;;;;;;5054116;28;20041;-80
2022/03/30 12:32:15;;;;;;;7.10;4.53;;;13.80;64.70;;;;;;5053248;28;20025;-77
2022/03/30 12:34:42;;;;;;;8.82;4.47;;;13.90;64.00;;;;;;5052004;28;20041;-78
2022/03/30 12:37:10;;;;;;;9.10;4.60;;;14.10;64.50;;;;;;5051996;28;20037;-79
2022/03/30 12:39:41;;;;;;;8.13;3.75;;;14.20;64.30;;;;;;5052236;28;20029;-78
2022/03/30 12:42:11;;;;;;;6.00;4.57;;;14.30;63.90;;;;;;5051862;28;20071;-79
2022/03/30 12:44:40;;;;;;;6.03;4.20;;;14.40;62.60;;;;;;5053004;28;20056;-79
2022/03/30 12:47:29;;;;;;;9.57;5.45;;;14.50;64.00;;;;;;5052643;28;20107;-78
2022/03/30 12:49:57;;;;;;;8.10;3.63;;;14.60;64.00;;;;;;5053121;28;20025;-80